createdAt,value
2022-10-02T00:02:17.479Z,12.20
2022-10-02T00:05:10.771Z,12.30
2022-10-02T00:07:47.484Z,12.30
2022-10-02T00:10:21.532Z,12.30
2022-10-02T00:12:51.593Z,12.20
2022-10-02T00:15:25.937Z,12.30
2022-10-02T00:17:56.551Z,12.20
2022-10-02T00:20:30.336Z,12.20
2022-10-02T00:23:12.076Z,12.20
2022-10-02T00:25:51.047Z,12.10
2022-10-02T00:28:25.767Z,12.10
2022-10-02T00:31:09.330Z,12.20
2022-10-02T00:33:46.749Z,12.10
2022-10-02T00:36:14.338Z,12.00
2022-10-02T00:39:01.930Z,12.10
2022-10-02T00:41:43.037Z,12.00
2022-10-02T00:44:20.422Z,12.00
2022-10-02T00:47:04.051Z,12.00
2022-10-02T00:49:50.455Z,12.00
2022-10-02T00:52:48.141Z,12.00
2022-10-02T00:55:19.229Z,12.00
2022-10-02T00:57:56.445Z,12.10
2022-10-02T01:00:24.249Z,12.10
2022-10-02T01:02:59.775Z,12.10
2022-10-02T01:05:34.326Z,12.10
2022-10-02T01:08:02.375Z,12.10
2022-10-02T01:10:31.647Z,12.10
2022-10-02T01:12:59.607Z,12.10
2022-10-02T01:15:33.879Z,12.20
2022-10-02T01:18:02.348Z,12.20
2022-10-02T01:20:29.751Z,12.30
2022-10-02T01:23:12.804Z,12.40
2022-10-02T01:25:40.624Z,12.30
2022-10-02T01:28:08.370Z,12.30
2022-10-02T01:30:44.541Z,12.30
2022-10-02T01:33:13.371Z,12.50
2022-10-02T01:35:41.499Z,12.50
2022-10-02T01:38:10.953Z,12.50
2022-10-02T01:40:46.481Z,12.50
2022-10-02T01:43:16.686Z,12.50
2022-10-02T01:45:55.184Z,12.50
2022-10-02T01:48:30.033Z,12.50
2022-10-02T01:51:03.869Z,12.50
2022-10-02T01:53:53.569Z,12.50
2022-10-02T01:56:25.879Z,12.50
2022-10-02T01:59:05.284Z,12.50
2022-10-02T02:06:34.703Z,12.60
2022-10-02T02:09:05.547Z,12.60
2022-10-02T02:11:35.646Z,12.50
2022-10-02T02:14:24.777Z,12.50
2022-10-02T02:16:55.976Z,12.50
2022-10-02T02:19:53.495Z,12.40
2022-10-02T02:22:26.833Z,12.30
2022-10-02T02:25:07.642Z,12.30
2022-10-02T02:27:50.968Z,12.30
2022-10-02T02:30:21.034Z,12.30
2022-10-02T02:32:51.107Z,12.30
2022-10-02T02:35:23.178Z,12.30
2022-10-02T02:37:52.590Z,12.40
2022-10-02T02:40:22.471Z,12.30
2022-10-02T02:42:55.213Z,12.40
2022-10-02T02:45:23.832Z,12.40
2022-10-02T02:47:56.409Z,12.30
2022-10-02T02:50:26.731Z,12.30
2022-10-02T02:53:23.691Z,12.40
2022-10-02T02:55:58.355Z,12.40
2022-10-02T02:58:47.357Z,12.40
2022-10-02T03:01:16.128Z,12.30
2022-10-02T03:03:43.867Z,12.30
2022-10-02T03:06:15.886Z,12.30
2022-10-02T03:08:43.856Z,12.40
2022-10-02T03:11:25.738Z,12.30
2022-10-02T03:14:01.096Z,12.40
2022-10-02T03:16:45.826Z,12.40
2022-10-02T03:19:16.736Z,12.40
2022-10-02T03:22:03.084Z,12.40
2022-10-02T03:24:41.702Z,12.40
2022-10-02T03:27:12.718Z,12.30
2022-10-02T03:29:40.635Z,12.30
2022-10-02T03:32:09.425Z,12.30
2022-10-02T03:34:38.214Z,12.30
2022-10-02T03:37:06.970Z,12.40
2022-10-02T03:39:35.102Z,12.40
2022-10-02T03:42:02.854Z,12.40
2022-10-02T03:44:36.428Z,12.30
2022-10-02T03:47:05.599Z,12.40
2022-10-02T03:49:33.826Z,12.40
2022-10-02T03:52:01.541Z,12.40
2022-10-02T03:54:31.369Z,12.40
2022-10-02T03:57:03.482Z,12.50
2022-10-02T03:59:31.136Z,12.50
2022-10-02T04:02:00.675Z,12.40
2022-10-02T04:04:31.703Z,12.60
2022-10-02T04:07:01.987Z,12.50
2022-10-02T04:09:31.768Z,12.50
2022-10-02T04:12:21.353Z,12.60
2022-10-02T04:15:01.551Z,12.50
2022-10-02T04:17:47.323Z,12.40
2022-10-02T04:20:21.486Z,12.40
2022-10-02T04:22:54.892Z,12.50
2022-10-02T04:25:25.568Z,12.40
2022-10-02T04:28:03.612Z,12.50
2022-10-02T04:30:32.215Z,12.40
2022-10-02T04:33:11.148Z,12.40
2022-10-02T04:36:01.766Z,12.50
2022-10-02T04:38:29.190Z,12.40
2022-10-02T04:41:20.874Z,12.50
2022-10-02T04:43:51.535Z,12.50
2022-10-02T04:46:39.615Z,12.50
2022-10-02T04:49:30.772Z,12.50
2022-10-02T04:51:58.430Z,12.50
2022-10-02T04:54:55.687Z,12.50
2022-10-02T04:57:23.179Z,12.50
2022-10-02T05:00:04.175Z,12.60
2022-10-02T05:03:04.531Z,12.70
2022-10-02T05:05:40.766Z,12.70
2022-10-02T05:08:08.246Z,12.60
2022-10-02T05:10:35.634Z,12.60
2022-10-02T05:13:03.764Z,12.50
2022-10-02T05:15:50.054Z,12.40
2022-10-02T05:18:23.833Z,12.40
2022-10-02T05:21:17.997Z,12.30
2022-10-02T05:23:45.661Z,12.30
2022-10-02T05:26:19.322Z,12.40
2022-10-02T05:28:47.239Z,12.40
2022-10-02T05:31:26.982Z,12.40
2022-10-02T05:34:07.762Z,12.40
2022-10-02T05:36:44.471Z,12.50
2022-10-02T05:39:16.631Z,12.40
2022-10-02T05:41:56.328Z,12.40
2022-10-02T05:44:35.778Z,12.50
2022-10-02T05:47:13.870Z,12.50
2022-10-02T05:49:44.739Z,12.50
2022-10-02T05:52:32.925Z,12.60
2022-10-02T05:55:13.628Z,12.60
2022-10-02T05:57:48.813Z,12.70
2022-10-02T06:00:20.277Z,12.70
2022-10-02T06:03:01.973Z,12.70
2022-10-02T06:05:33.657Z,12.80
2022-10-02T06:08:04.738Z,12.80
2022-10-02T06:10:36.433Z,12.80
2022-10-02T06:13:23.684Z,13.00
2022-10-02T06:16:05.286Z,13.00
2022-10-02T06:18:34.197Z,13.20
2022-10-02T06:21:12.552Z,13.40
2022-10-02T06:23:42.442Z,13.40
2022-10-02T06:26:13.109Z,13.70
2022-10-02T06:28:43.115Z,14.70
2022-10-02T06:31:14.078Z,14.90
2022-10-02T06:33:41.868Z,14.50
2022-10-02T06:36:15.497Z,15.50
2022-10-02T06:39:02.124Z,16.20
2022-10-02T06:41:51.063Z,16.70
2022-10-02T06:44:18.423Z,17.30
2022-10-02T06:46:54.101Z,17.50
2022-10-02T06:49:32.581Z,17.30
2022-10-02T06:52:06.469Z,17.90
2022-10-02T06:54:51.533Z,18.10
2022-10-02T06:57:34.854Z,18.30
2022-10-02T07:00:08.789Z,18.60
2022-10-02T07:02:36.639Z,17.90
2022-10-02T07:05:24.254Z,17.40
2022-10-02T07:08:06.742Z,16.80
2022-10-02T07:10:38.265Z,16.20
2022-10-02T07:13:12.760Z,15.70
2022-10-02T07:15:52.399Z,15.50
2022-10-02T07:18:27.195Z,15.30
2022-10-02T07:21:13.727Z,15.10
2022-10-02T07:23:52.245Z,14.90
2022-10-02T07:26:36.229Z,14.90
2022-10-02T07:29:21.680Z,14.70
2022-10-02T07:32:10.989Z,14.70
2022-10-02T07:34:44.607Z,14.60
2022-10-02T07:37:18.648Z,15.10
2022-10-02T07:39:54.877Z,15.30
2022-10-02T07:42:50.904Z,15.10
2022-10-02T07:45:18.706Z,15.40
2022-10-02T07:47:54.122Z,15.70
2022-10-02T07:50:33.996Z,15.50
2022-10-02T07:53:21.227Z,15.40
2022-10-02T07:55:53.206Z,15.40
2022-10-02T07:58:41.884Z,16.00
2022-10-02T08:01:17.932Z,16.10
2022-10-02T08:03:48.554Z,16.30
2022-10-02T08:06:16.537Z,16.70
2022-10-02T08:08:47.791Z,17.40
2022-10-02T08:11:23.371Z,17.60
2022-10-02T08:14:18.452Z,17.40
2022-10-02T08:16:48.307Z,17.80
2022-10-02T08:19:17.613Z,17.90
2022-10-02T08:21:50.266Z,18.40
2022-10-02T08:24:20.300Z,17.50
2022-10-02T08:26:52.083Z,17.70
2022-10-02T08:29:31.162Z,18.30
2022-10-02T08:31:58.924Z,18.30
2022-10-02T08:34:28.086Z,18.70
2022-10-02T08:36:55.724Z,19.10
2022-10-02T08:39:32.401Z,18.80
2022-10-02T08:42:06.603Z,18.40
2022-10-02T08:44:53.626Z,17.90
2022-10-02T08:47:33.104Z,17.60
2022-10-02T08:50:04.110Z,17.20
2022-10-02T08:52:48.693Z,16.80
2022-10-02T08:55:26.135Z,16.60
2022-10-02T08:58:11.101Z,16.50
2022-10-02T09:00:58.023Z,16.30
2022-10-02T09:03:37.818Z,15.70
2022-10-02T09:06:15.733Z,15.50
2022-10-02T09:09:13.278Z,15.40
2022-10-02T09:12:01.139Z,15.30
2022-10-02T09:14:35.060Z,15.30
2022-10-02T09:17:20.954Z,15.10
2022-10-02T09:19:56.328Z,15.50
2022-10-02T09:22:44.488Z,16.50
2022-10-02T09:25:22.445Z,17.30
2022-10-02T09:28:11.116Z,17.60
2022-10-02T09:31:03.693Z,18.40
2022-10-02T09:33:34.424Z,18.50
2022-10-02T09:36:36.193Z,18.90
2022-10-02T09:39:19.156Z,19.40
2022-10-02T09:42:12.687Z,18.80
2022-10-02T09:45:01.492Z,18.90
2022-10-02T09:47:35.573Z,19.00
2022-10-02T09:50:03.081Z,19.00
2022-10-02T09:52:34.005Z,19.90
2022-10-02T09:55:10.993Z,20.10
2022-10-02T09:57:57.481Z,19.10
2022-10-02T10:00:38.437Z,19.70
2022-10-02T10:03:18.696Z,20.00
2022-10-02T10:06:06.432Z,20.60
2022-10-02T10:08:52.573Z,21.30
2022-10-02T10:11:41.922Z,22.20
2022-10-02T10:14:33.706Z,22.20
2022-10-02T10:17:20.258Z,22.00
2022-10-02T10:20:06.646Z,21.80
2022-10-02T10:22:51.492Z,20.90
2022-10-02T10:25:22.173Z,21.10
2022-10-02T10:27:56.044Z,21.00
2022-10-02T10:30:36.304Z,21.80
2022-10-02T10:33:03.988Z,22.20
2022-10-02T10:35:49.222Z,22.40
2022-10-02T10:38:32.863Z,22.40
2022-10-02T10:41:09.808Z,23.20
2022-10-02T10:43:56.154Z,22.90
2022-10-02T10:46:32.406Z,22.70
2022-10-02T10:49:18.872Z,22.90
2022-10-02T10:51:49.587Z,22.70
2022-10-02T10:54:44.957Z,21.40
2022-10-02T10:57:19.051Z,20.90
2022-10-02T10:59:54.114Z,20.80
2022-10-02T11:02:40.894Z,21.30
2022-10-02T11:05:22.439Z,21.70
2022-10-02T11:07:53.253Z,22.20
2022-10-02T11:10:40.191Z,21.60
2022-10-02T11:13:29.160Z,21.70
2022-10-02T11:16:07.632Z,21.90
2022-10-02T11:18:44.451Z,21.60
2022-10-02T11:21:25.980Z,21.40
2022-10-02T11:24:00.823Z,21.50
2022-10-02T11:26:32.559Z,22.50
2022-10-02T11:29:23.430Z,23.50
2022-10-02T11:31:57.263Z,23.00
2022-10-02T11:34:44.250Z,21.60
2022-10-02T11:37:24.431Z,21.20
2022-10-02T11:39:58.387Z,21.00
2022-10-02T11:42:42.292Z,21.60
2022-10-02T11:45:19.048Z,22.90
2022-10-02T11:47:56.679Z,22.70
2022-10-02T11:50:44.249Z,22.30
2022-10-02T11:53:24.045Z,22.00
2022-10-02T11:56:12.227Z,21.70
2022-10-02T11:58:46.047Z,21.30
2022-10-02T12:01:17.389Z,21.10
2022-10-02T12:03:53.166Z,20.80
2022-10-02T12:06:33.884Z,20.50
2022-10-02T12:09:01.835Z,20.40
2022-10-02T12:11:47.378Z,20.10
2022-10-02T12:14:38.717Z,20.00
2022-10-02T12:17:19.121Z,20.00
2022-10-02T12:20:46.150Z,20.30
2022-10-02T12:23:32.546Z,20.50
2022-10-02T12:26:26.616Z,20.60
2022-10-02T12:28:56.190Z,20.40
2022-10-02T12:31:29.040Z,20.50
2022-10-02T12:34:02.254Z,20.50
2022-10-02T12:36:33.975Z,21.10
2022-10-02T12:39:13.275Z,21.40
2022-10-02T12:41:40.862Z,20.70
2022-10-02T12:44:32.888Z,20.50
2022-10-02T12:47:27.097Z,20.30
2022-10-02T12:50:03.756Z,20.50
2022-10-02T12:52:58.635Z,20.30
2022-10-02T12:55:48.189Z,20.30
2022-10-02T12:58:23.973Z,20.30
2022-10-02T13:01:10.793Z,20.20
2022-10-02T13:03:56.990Z,19.90
2022-10-02T13:06:25.567Z,19.80
2022-10-02T13:09:06.838Z,19.60
2022-10-02T13:11:55.871Z,19.60
2022-10-02T13:14:46.467Z,19.30
2022-10-02T13:17:25.820Z,19.10
2022-10-02T13:19:53.579Z,18.90
2022-10-02T13:22:42.379Z,18.60
2022-10-02T13:25:25.772Z,18.30
2022-10-02T13:28:07.457Z,18.10
2022-10-02T13:30:40.129Z,17.40
2022-10-02T13:33:20.327Z,16.60
2022-10-02T13:35:57.287Z,16.10
2022-10-02T13:38:44.319Z,15.80
2022-10-02T13:41:14.812Z,15.40
2022-10-02T13:43:50.448Z,15.10
2022-10-02T13:46:20.871Z,14.90
2022-10-02T13:48:57.346Z,14.90
2022-10-02T13:51:34.656Z,14.80
2022-10-02T13:54:21.345Z,14.60
2022-10-02T13:56:51.571Z,14.50
2022-10-02T13:59:36.753Z,14.50
2022-10-02T14:02:10.458Z,14.30
2022-10-02T14:04:57.787Z,14.20
2022-10-02T14:07:38.546Z,14.20
2022-10-02T14:10:06.852Z,14.30
2022-10-02T14:12:55.074Z,14.40
2022-10-02T14:15:29.147Z,14.10
2022-10-02T14:18:15.416Z,14.30
2022-10-02T14:21:02.095Z,14.20
2022-10-02T14:23:48.227Z,14.20
2022-10-02T14:26:15.870Z,14.00
2022-10-02T14:28:51.294Z,13.80
2022-10-02T14:31:28.883Z,13.80
2022-10-02T14:34:15.347Z,13.90
2022-10-02T14:36:50.464Z,14.50
2022-10-02T14:39:33.670Z,14.90
2022-10-02T14:42:28.611Z,15.00
2022-10-02T14:45:25.191Z,15.30
2022-10-02T14:47:59.701Z,15.70
2022-10-02T14:50:45.868Z,16.50
2022-10-02T14:53:16.700Z,16.70
2022-10-02T14:56:28.241Z,16.70
2022-10-02T14:58:58.846Z,16.90
2022-10-02T15:01:27.079Z,17.10
2022-10-02T15:03:54.881Z,17.10
2022-10-02T15:06:26.191Z,17.30
2022-10-02T15:08:57.252Z,17.40
2022-10-02T15:11:28.505Z,17.60
2022-10-02T15:14:00.423Z,17.50
2022-10-02T15:17:01.143Z,17.70
2022-10-02T15:19:33.125Z,17.70
2022-10-02T15:22:07.192Z,17.60
2022-10-02T15:24:45.978Z,17.50
2022-10-02T15:27:29.513Z,17.50
2022-10-02T15:29:58.567Z,17.30
2022-10-02T15:36:03.180Z,17.30
2022-10-02T15:38:35.138Z,17.40
2022-10-02T15:41:12.148Z,17.50
2022-10-02T15:43:43.620Z,17.30
2022-10-02T15:46:23.953Z,17.00
2022-10-02T15:49:04.805Z,16.90
2022-10-02T15:51:38.616Z,16.70
2022-10-02T15:54:15.587Z,16.50
2022-10-02T15:57:16.898Z,16.20
2022-10-02T15:59:58.539Z,16.10
2022-10-02T16:02:47.658Z,15.90
2022-10-02T16:05:38.238Z,15.80
2022-10-02T16:08:24.814Z,15.70
2022-10-02T16:10:55.560Z,15.60
2022-10-02T16:13:30.505Z,15.40
2022-10-02T16:15:58.051Z,15.30
2022-10-02T16:18:38.296Z,15.10
2022-10-02T16:21:18.746Z,15.00
2022-10-02T16:24:04.937Z,14.90
2022-10-02T16:26:40.027Z,14.80
2022-10-02T16:29:14.879Z,14.70
2022-10-02T16:31:57.619Z,14.70
2022-10-02T16:34:25.881Z,14.70
2022-10-02T16:36:56.734Z,14.60
2022-10-02T16:39:52.458Z,14.60
2022-10-02T16:42:28.242Z,14.60
2022-10-02T16:45:04.096Z,14.50
2022-10-02T16:47:43.658Z,14.50
2022-10-02T16:50:14.936Z,14.40
2022-10-02T16:52:46.332Z,14.30
2022-10-02T16:55:27.620Z,14.30
2022-10-02T16:57:55.774Z,14.20
2022-10-02T17:00:31.568Z,14.10
2022-10-02T17:03:33.558Z,14.00
2022-10-02T17:06:32.555Z,14.00
2022-10-02T17:09:05.752Z,13.90
2022-10-02T17:11:33.306Z,13.90
2022-10-02T17:14:14.789Z,13.80
2022-10-02T17:16:57.066Z,13.70
2022-10-02T17:19:28.296Z,13.60
2022-10-02T17:22:15.167Z,13.60
2022-10-02T17:24:51.167Z,13.60
2022-10-02T17:27:27.660Z,13.50
2022-10-02T17:29:58.684Z,13.50
2022-10-02T17:32:51.752Z,13.60
2022-10-02T17:35:28.932Z,13.60
2022-10-02T17:38:13.079Z,13.60
2022-10-02T17:41:02.575Z,13.50
2022-10-02T17:44:01.336Z,13.50
2022-10-02T17:46:28.726Z,13.40
2022-10-02T17:48:59.395Z,13.50
2022-10-02T17:55:21.314Z,13.30
2022-10-02T17:57:49.195Z,13.30
2022-10-02T18:00:22.944Z,13.30
2022-10-02T18:03:10.271Z,13.20
2022-10-02T18:05:48.004Z,13.20
2022-10-02T18:08:29.788Z,13.20
2022-10-02T18:11:20.096Z,13.10
2022-10-02T18:14:07.389Z,13.10
2022-10-02T18:16:45.814Z,13.10
2022-10-02T18:19:33.775Z,13.00
2022-10-02T18:22:21.134Z,13.00
2022-10-02T18:24:58.187Z,13.10
2022-10-02T18:27:28.827Z,13.10
2022-10-02T18:30:03.678Z,13.10
2022-10-02T18:32:37.674Z,13.10
2022-10-02T18:35:19.904Z,13.10
2022-10-02T18:38:06.662Z,13.10
2022-10-02T18:40:53.764Z,13.10
2022-10-02T18:43:47.753Z,13.20
2022-10-02T18:46:29.919Z,13.00
2022-10-02T18:48:57.655Z,13.00
2022-10-02T18:51:32.013Z,13.00
2022-10-02T18:54:05.189Z,13.00
2022-10-02T18:56:53.147Z,12.90
2022-10-02T18:59:39.812Z,12.90
2022-10-02T19:02:27.005Z,12.90
2022-10-02T19:04:54.586Z,12.90
2022-10-02T19:07:24.796Z,12.80
2022-10-02T19:10:13.091Z,12.90
2022-10-02T19:12:42.920Z,12.90
2022-10-02T19:15:22.787Z,12.90
2022-10-02T19:18:01.497Z,12.90
2022-10-02T19:20:44.591Z,13.00
2022-10-02T19:23:17.633Z,12.90
2022-10-02T19:25:50.244Z,13.00
2022-10-02T19:28:19.657Z,13.00
2022-10-02T19:30:52.538Z,13.00
2022-10-02T19:33:22.081Z,13.10
2022-10-02T19:35:51.932Z,13.00
2022-10-02T19:38:23.166Z,13.00
2022-10-02T19:41:00.765Z,13.00
2022-10-02T19:43:34.402Z,13.00
2022-10-02T19:46:04.351Z,13.00
2022-10-02T19:48:39.141Z,13.00
2022-10-02T19:51:08.216Z,13.00
2022-10-02T19:53:44.147Z,13.00
2022-10-02T19:56:19.437Z,13.10
2022-10-02T19:58:51.388Z,13.00
2022-10-02T20:01:20.523Z,13.10
2022-10-02T20:03:50.384Z,13.00
2022-10-02T20:06:22.732Z,13.00
2022-10-02T20:08:53.786Z,13.00
2022-10-02T20:11:41.778Z,13.00
2022-10-02T20:14:29.667Z,13.00
2022-10-02T20:17:09.604Z,13.00
2022-10-02T20:19:38.059Z,13.00
2022-10-02T20:22:11.160Z,13.10
2022-10-02T20:24:51.372Z,13.00
2022-10-02T20:27:22.829Z,13.00
2022-10-02T20:29:52.941Z,12.90
2022-10-02T20:32:42.214Z,12.90
2022-10-02T20:35:19.351Z,12.80
2022-10-02T20:37:49.014Z,12.80
2022-10-02T20:40:18.868Z,12.80
2022-10-02T20:42:58.421Z,12.80
2022-10-02T20:45:39.351Z,12.70
2022-10-02T20:48:07.499Z,12.70
2022-10-02T20:51:17.205Z,12.60
2022-10-02T20:53:50.855Z,12.60
2022-10-02T20:56:37.377Z,12.50
2022-10-02T20:59:17.673Z,12.40
2022-10-02T21:01:53.049Z,12.50
2022-10-02T21:04:47.380Z,12.50
2022-10-02T21:07:37.366Z,12.50
2022-10-02T21:10:27.045Z,12.50
2022-10-02T21:12:55.522Z,12.50
2022-10-02T21:15:41.912Z,12.50
2022-10-02T21:18:29.977Z,12.50
2022-10-02T21:21:10.338Z,12.40
2022-10-02T21:23:45.290Z,12.40
2022-10-02T21:26:12.684Z,12.40
2022-10-02T21:28:48.865Z,12.50
2022-10-02T21:31:56.573Z,12.40
2022-10-02T21:34:25.852Z,12.50
2022-10-02T21:36:58.774Z,12.50
2022-10-02T21:39:49.541Z,12.50
2022-10-02T21:42:17.599Z,12.40
2022-10-02T21:45:04.668Z,12.40
2022-10-02T21:47:41.010Z,12.40
2022-10-02T21:50:27.531Z,12.30
2022-10-02T21:53:09.657Z,12.40
2022-10-02T21:55:56.548Z,12.40
2022-10-02T21:58:39.461Z,12.40
2022-10-02T22:01:22.947Z,12.40
2022-10-02T22:04:09.606Z,12.40
2022-10-02T22:06:57.315Z,12.40
2022-10-02T22:09:44.716Z,12.40
2022-10-02T22:12:18.406Z,12.40
2022-10-02T22:14:51.403Z,12.40
2022-10-02T22:17:18.941Z,12.40
2022-10-02T22:19:58.085Z,12.40
2022-10-02T22:22:28.461Z,12.30
2022-10-02T22:25:11.081Z,12.40
2022-10-02T22:27:46.562Z,12.30
2022-10-02T22:30:20.602Z,12.30
2022-10-02T22:33:10.636Z,12.30
2022-10-02T22:35:59.185Z,12.20
2022-10-02T22:38:37.875Z,12.20
2022-10-02T22:41:16.701Z,12.20
2022-10-02T22:44:16.563Z,12.20
2022-10-02T22:46:56.227Z,12.20
2022-10-02T22:49:29.797Z,12.20
2022-10-02T22:52:20.362Z,12.10
2022-10-02T22:55:07.375Z,12.10
2022-10-02T22:57:44.644Z,12.10
2022-10-02T23:00:18.222Z,12.20
2022-10-02T23:02:46.201Z,12.20
2022-10-02T23:05:34.006Z,12.10
2022-10-02T23:08:01.985Z,12.10
2022-10-02T23:10:35.554Z,12.10
2022-10-02T23:13:26.529Z,12.10
2022-10-02T23:15:54.285Z,12.10
2022-10-02T23:18:28.911Z,12.10
2022-10-02T23:21:02.413Z,12.10
2022-10-02T23:23:51.193Z,12.00
2022-10-02T23:26:21.762Z,12.00
2022-10-02T23:29:08.090Z,12.00
2022-10-02T23:31:37.673Z,12.00
2022-10-02T23:34:18.146Z,12.00
2022-10-02T23:36:56.286Z,12.00
2022-10-02T23:39:24.367Z,11.90
2022-10-02T23:41:54.557Z,11.90
2022-10-02T23:44:28.505Z,11.90
2022-10-02T23:46:57.851Z,11.90
2022-10-02T23:49:29.616Z,11.80
2022-10-02T23:52:17.503Z,11.90
2022-10-02T23:55:04.151Z,11.90
2022-10-02T23:57:34.782Z,11.90
